createdAt,value
2022-12-04T00:03:04.012Z,103580.03
2022-12-04T00:06:11.352Z,103554.22
2022-12-04T00:09:16.133Z,103554.69
2022-12-04T00:12:20.809Z,103559.31
2022-12-04T00:15:26.680Z,103559.72
2022-12-04T00:18:33.207Z,103564.69
2022-12-04T00:21:37.990Z,103561.13
2022-12-04T00:24:42.682Z,103561.88
2022-12-04T00:27:47.293Z,103557.53
2022-12-04T00:30:52.067Z,103561.88
2022-12-04T00:33:58.618Z,103550.06
2022-12-04T00:37:03.254Z,103561.63
2022-12-04T00:40:10.052Z,103561.09
2022-12-04T00:43:15.057Z,103567.63
2022-12-04T00:46:20.329Z,103565.31
2022-12-04T00:49:27.184Z,103560.53
2022-12-04T00:52:31.889Z,103558.88
2022-12-04T00:55:39.574Z,103552.00
2022-12-04T00:58:44.870Z,103555.47
2022-12-04T01:01:49.602Z,103550.28
2022-12-04T01:04:55.613Z,103552.19
2022-12-04T01:08:00.402Z,103550.78
2022-12-04T01:11:07.960Z,103548.72
2022-12-04T01:14:13.396Z,103553.03
2022-12-04T01:17:18.137Z,103547.84
2022-12-04T01:20:24.442Z,103550.38
2022-12-04T01:23:29.149Z,103547.63
2022-12-04T01:26:34.080Z,103557.72
2022-12-04T01:29:38.902Z,103551.63
2022-12-04T01:32:43.691Z,103553.22
2022-12-04T01:35:56.026Z,103551.06
2022-12-04T01:39:00.692Z,103556.69
2022-12-04T01:42:05.554Z,103559.19
2022-12-04T01:45:42.150Z,103551.72
2022-12-04T01:48:53.758Z,103549.75
2022-12-04T01:52:02.395Z,103546.03
2022-12-04T01:55:08.516Z,103546.28
2022-12-04T01:58:14.486Z,103545.47
2022-12-04T02:01:19.273Z,103549.75
2022-12-04T02:04:24.164Z,103536.50
2022-12-04T02:07:30.277Z,103535.09
2022-12-04T02:10:44.268Z,103546.44
2022-12-04T02:13:56.692Z,103551.38
2022-12-04T02:17:11.768Z,103538.34
2022-12-04T02:20:24.886Z,103550.78
2022-12-04T02:23:57.090Z,103542.97
2022-12-04T02:27:05.249Z,103536.22
2022-12-04T02:30:15.913Z,103539.59
2022-12-04T02:33:23.622Z,103534.38
2022-12-04T02:36:31.319Z,103541.78
2022-12-04T02:39:40.569Z,103540.09
2022-12-04T02:42:49.396Z,103537.25
2022-12-04T02:46:00.967Z,103538.19
2022-12-04T02:49:12.628Z,103543.50
2022-12-04T02:52:22.619Z,103548.00
2022-12-04T02:55:32.020Z,103548.56
2022-12-04T02:58:42.436Z,103544.38
2022-12-04T03:01:52.102Z,103550.44
2022-12-04T03:04:58.177Z,103540.00
2022-12-04T03:08:06.058Z,103543.31
2022-12-04T03:11:11.077Z,103541.78
2022-12-04T03:14:19.048Z,103538.19
2022-12-04T03:17:28.978Z,103547.31
2022-12-04T03:20:35.845Z,103543.38
2022-12-04T03:23:47.780Z,103552.25
2022-12-04T03:26:58.769Z,103564.44
2022-12-04T03:30:07.862Z,103553.03
2022-12-04T03:33:19.608Z,103554.34
2022-12-04T03:36:28.457Z,103545.41
2022-12-04T03:39:39.028Z,103542.25
2022-12-04T03:42:48.921Z,103546.75
2022-12-04T03:45:59.039Z,103556.88
2022-12-04T03:49:12.746Z,103545.16
2022-12-04T03:52:24.804Z,103549.72
2022-12-04T03:55:33.697Z,103543.19
2022-12-04T03:58:42.509Z,103544.84
2022-12-04T04:01:50.582Z,103540.59
2022-12-04T04:04:59.251Z,103543.19
2022-12-04T04:08:21.795Z,103541.22
2022-12-04T04:11:32.596Z,103546.16
2022-12-04T04:15:10.217Z,103545.91
2022-12-04T04:18:32.521Z,103543.47
2022-12-04T04:21:58.372Z,103553.25
2022-12-04T04:25:06.599Z,103543.19
2022-12-04T04:28:32.593Z,103553.72
2022-12-04T04:31:41.872Z,103553.53
2022-12-04T04:34:55.245Z,103551.59
2022-12-04T04:38:08.777Z,103560.63
2022-12-04T04:41:19.493Z,103551.69
2022-12-04T04:44:29.374Z,103546.47
2022-12-04T04:47:46.815Z,103547.56
2022-12-04T04:50:52.014Z,103544.34
2022-12-04T04:54:00.599Z,103550.63
2022-12-04T04:57:05.788Z,103561.00
2022-12-04T05:00:16.341Z,103551.94
2022-12-04T05:03:21.115Z,103553.06
2022-12-04T05:06:25.914Z,103554.63
2022-12-04T05:09:34.613Z,103556.91
2022-12-04T05:12:41.733Z,103547.53
2022-12-04T05:15:46.624Z,103551.94
2022-12-04T05:19:05.205Z,103547.34
2022-12-04T05:22:10.435Z,103550.91
2022-12-04T05:25:16.606Z,103551.63
2022-12-04T05:28:22.433Z,103545.56
2022-12-04T05:31:27.108Z,103542.19
2022-12-04T05:34:32.046Z,103549.47
2022-12-04T05:37:39.120Z,103549.47
2022-12-04T05:40:45.194Z,103547.56
2022-12-04T05:43:49.957Z,103539.25
2022-12-04T05:46:54.788Z,103547.66
2022-12-04T05:49:59.522Z,103543.06
2022-12-04T05:53:04.156Z,103545.88
2022-12-04T05:56:11.558Z,103546.44
2022-12-04T05:59:16.644Z,103542.34
2022-12-04T06:02:39.094Z,103543.22
2022-12-04T06:05:43.893Z,103547.22
2022-12-04T06:08:48.960Z,103545.66
2022-12-04T06:11:59.160Z,103543.22
2022-12-04T06:15:04.137Z,103545.66
2022-12-04T06:18:09.074Z,103546.34
2022-12-04T06:21:14.045Z,103552.84
2022-12-04T06:24:21.962Z,103551.91
2022-12-04T06:27:28.843Z,103553.50
2022-12-04T06:30:35.350Z,103551.72
2022-12-04T06:33:40.189Z,103553.06
2022-12-04T06:36:44.973Z,103562.69
2022-12-04T06:39:49.765Z,103557.06
2022-12-04T06:42:55.838Z,103561.31
2022-12-04T06:46:06.299Z,103553.16
2022-12-04T06:49:12.857Z,103555.50
2022-12-04T06:52:17.774Z,103566.03
2022-12-04T06:55:22.408Z,103574.84
2022-12-04T06:58:29.065Z,103572.84
2022-12-04T07:01:36.021Z,103573.78
2022-12-04T07:04:40.734Z,103582.97
2022-12-04T07:07:45.461Z,103580.97
2022-12-04T07:10:53.146Z,103577.44
2022-12-04T07:14:03.831Z,103579.69
2022-12-04T07:17:09.005Z,103586.44
2022-12-04T07:20:15.593Z,103587.25
2022-12-04T07:23:20.262Z,103588.72
2022-12-04T07:26:26.556Z,103580.38
2022-12-04T07:29:32.757Z,103589.16
2022-12-04T07:32:37.488Z,103573.63
2022-12-04T07:35:42.148Z,103584.81
2022-12-04T07:38:47.384Z,103580.38
2022-12-04T07:41:51.988Z,103583.84
2022-12-04T07:44:58.057Z,103586.44
2022-12-04T07:48:02.886Z,103587.06
2022-12-04T07:51:09.608Z,103587.25
2022-12-04T07:54:14.581Z,103589.84
2022-12-04T07:57:19.328Z,103592.44
2022-12-04T08:00:25.699Z,103587.94
2022-12-04T08:03:30.494Z,103587.25
2022-12-04T08:06:36.166Z,103590.97
2022-12-04T08:09:40.844Z,103591.56
2022-12-04T08:12:45.568Z,103580.47
2022-12-04T08:15:51.690Z,103585.75
2022-12-04T08:18:57.085Z,103586.44
2022-12-04T08:22:01.879Z,103581.69
2022-12-04T08:25:08.071Z,103590.72
2022-12-04T08:28:14.650Z,103589.38
2022-12-04T08:31:22.780Z,103594.66
2022-12-04T08:34:27.498Z,103589.97
2022-12-04T08:37:32.295Z,103592.50
2022-12-04T08:40:36.993Z,103603.88
2022-12-04T08:43:41.976Z,103613.22
2022-12-04T08:46:48.089Z,103612.28
2022-12-04T08:49:52.965Z,103614.78
2022-12-04T08:52:57.827Z,103621.72
2022-12-04T08:56:02.831Z,103624.59
2022-12-04T08:59:08.132Z,103617.50
2022-12-04T09:02:16.731Z,103610.72
2022-12-04T09:05:21.414Z,103614.97
2022-12-04T09:08:26.042Z,103619.13
2022-12-04T09:11:32.905Z,103612.09
2022-12-04T09:14:37.881Z,103616.69
2022-12-04T09:17:43.978Z,103616.44
2022-12-04T09:20:58.128Z,103603.94
2022-12-04T09:24:02.909Z,103614.09
2022-12-04T09:27:14.309Z,103617.91
2022-12-04T09:30:19.793Z,103614.09
2022-12-04T09:33:25.879Z,103616.88
2022-12-04T09:36:30.843Z,103623.97
2022-12-04T09:39:35.591Z,103609.31
2022-12-04T09:42:46.102Z,103614.66
2022-12-04T09:45:54.817Z,103619.19
2022-12-04T09:49:05.036Z,103614.81
2022-12-04T09:52:21.856Z,103613.50
2022-12-04T09:55:30.806Z,103615.84
2022-12-04T09:58:42.426Z,103610.38
2022-12-04T10:01:49.458Z,103602.28
2022-12-04T10:04:55.582Z,103600.78
2022-12-04T10:08:06.855Z,103605.47
2022-12-04T10:11:16.073Z,103596.94
2022-12-04T10:14:33.453Z,103592.59
2022-12-04T10:18:02.818Z,103586.00
2022-12-04T10:21:34.089Z,103577.50
2022-12-04T10:24:45.057Z,103569.31
2022-12-04T10:27:54.797Z,103577.09
2022-12-04T10:31:03.108Z,103568.31
2022-12-04T10:34:14.918Z,103572.56
2022-12-04T10:37:20.845Z,103564.72
2022-12-04T10:40:32.715Z,103560.44
2022-12-04T10:43:44.409Z,103560.44
2022-12-04T10:46:49.333Z,103575.41
2022-12-04T10:50:01.024Z,103575.34
2022-12-04T10:53:13.437Z,103571.31
2022-12-04T10:56:22.305Z,103581.47
2022-12-04T10:59:27.966Z,103569.19
2022-12-04T11:02:34.378Z,103588.72
2022-12-04T11:05:45.117Z,103581.16
2022-12-04T11:08:53.432Z,103574.84
2022-12-04T11:12:09.745Z,103574.47
2022-12-04T11:15:17.764Z,103573.63
2022-12-04T11:18:25.135Z,103574.53
2022-12-04T11:21:32.047Z,103583.38
2022-12-04T11:24:40.129Z,103581.78
2022-12-04T11:27:49.566Z,103577.38
2022-12-04T11:30:57.016Z,103578.78
2022-12-04T11:34:04.437Z,103576.66
2022-12-04T11:37:21.269Z,103581.28
2022-12-04T11:40:28.286Z,103580.81
2022-12-04T11:43:34.220Z,103574.38
2022-12-04T11:46:39.001Z,103573.97
2022-12-04T11:49:44.103Z,103573.59
2022-12-04T11:53:03.808Z,103568.56
2022-12-04T11:56:23.075Z,103569.44
2022-12-04T11:59:55.461Z,103572.16
2022-12-04T12:03:13.427Z,103569.44
2022-12-04T12:06:32.297Z,103568.22
2022-12-04T12:09:42.886Z,103556.41
2022-12-04T12:12:58.723Z,103565.47
2022-12-04T12:16:10.970Z,103567.09
2022-12-04T12:19:39.395Z,103560.22
2022-12-04T12:23:22.139Z,103560.69
2022-12-04T12:26:35.718Z,103562.00
2022-12-04T12:29:56.933Z,103556.25
2022-12-04T12:33:11.891Z,103557.63
2022-12-04T12:36:17.070Z,103552.41
2022-12-04T12:39:24.820Z,103554.53
2022-12-04T12:42:34.038Z,103562.19
2022-12-04T12:45:47.133Z,103562.50
2022-12-04T12:49:00.805Z,103567.81
2022-12-04T12:52:08.569Z,103571.69
2022-12-04T12:55:19.553Z,103571.69
2022-12-04T12:58:30.395Z,103568.41
2022-12-04T13:01:46.373Z,103564.84
2022-12-04T13:04:53.550Z,103579.53
2022-12-04T13:08:04.809Z,103576.53
2022-12-04T13:11:14.122Z,103570.63
2022-12-04T13:14:19.156Z,103571.94
2022-12-04T13:17:32.306Z,103580.50
2022-12-04T13:20:45.479Z,103571.56
2022-12-04T13:23:57.664Z,103575.41
2022-12-04T13:27:08.386Z,103569.94
2022-12-04T13:30:19.107Z,103568.50
2022-12-04T13:33:50.139Z,103565.66
2022-12-04T13:37:27.995Z,103568.25
2022-12-04T13:40:37.078Z,103571.81
2022-12-04T13:43:48.069Z,103584.25
2022-12-04T13:46:57.655Z,103590.00
2022-12-04T13:50:30.946Z,103574.19
2022-12-04T13:53:39.842Z,103581.81
2022-12-04T13:56:46.257Z,103578.81
2022-12-04T14:00:01.955Z,103569.59
2022-12-04T14:03:25.946Z,103570.47
2022-12-04T14:06:39.385Z,103573.16
2022-12-04T14:09:50.568Z,103570.56
2022-12-04T14:13:01.199Z,103565.41
2022-12-04T14:16:08.308Z,103572.00
2022-12-04T14:19:29.141Z,103584.09
2022-12-04T14:22:45.066Z,103595.03
2022-12-04T14:25:51.256Z,103586.00
2022-12-04T14:29:07.908Z,103585.22
2022-12-04T14:32:19.315Z,103595.38
2022-12-04T14:35:26.005Z,103596.59
2022-12-04T14:38:32.490Z,103595.25
2022-12-04T14:41:37.154Z,103594.72
2022-12-04T14:44:42.090Z,103579.81
2022-12-04T14:47:56.705Z,103585.63
2022-12-04T14:51:12.256Z,103592.63
2022-12-04T14:54:27.208Z,103585.16
2022-12-04T14:57:47.636Z,103590.78
2022-12-04T15:00:53.149Z,103580.88
2022-12-04T15:04:00.619Z,103588.88
2022-12-04T15:10:39.346Z,103593.72
2022-12-04T15:13:44.735Z,103590.84
2022-12-04T15:16:49.310Z,103596.19
2022-12-04T15:19:53.987Z,103594.75
2022-12-04T15:22:59.052Z,103588.78
2022-12-04T15:26:08.240Z,103596.34
2022-12-04T15:29:18.910Z,103596.84
2022-12-04T15:32:25.775Z,103594.91
2022-12-04T15:35:33.384Z,103589.56
2022-12-04T15:38:38.362Z,103589.88
2022-12-04T15:41:44.418Z,103600.78
2022-12-04T15:44:54.332Z,103602.44
2022-12-04T15:47:59.366Z,103600.81
2022-12-04T15:51:06.740Z,103597.06
2022-12-04T15:54:17.221Z,103601.31
2022-12-04T15:57:29.255Z,103600.88
2022-12-04T16:00:37.338Z,103585.53
2022-12-04T16:03:49.032Z,103597.84
2022-12-04T16:06:54.921Z,103609.91
2022-12-04T16:10:04.440Z,103590.28
2022-12-04T16:13:31.159Z,103594.47
2022-12-04T16:16:37.155Z,103595.69
2022-12-04T16:19:42.935Z,103603.91
2022-12-04T16:22:51.621Z,103601.50
2022-12-04T16:25:58.914Z,103599.94
2022-12-04T16:29:08.282Z,103611.56
2022-12-04T16:32:15.865Z,103608.91
2022-12-04T16:35:21.368Z,103607.81
2022-12-04T16:38:26.307Z,103614.94
2022-12-04T16:41:30.979Z,103624.50
2022-12-04T16:44:40.572Z,103622.16
2022-12-04T16:47:46.756Z,103633.69
2022-12-04T16:50:51.694Z,103624.59
2022-12-04T16:53:56.734Z,103628.38
2022-12-04T16:57:01.943Z,103625.81
2022-12-04T17:00:12.526Z,103634.81
2022-12-04T17:03:22.489Z,103631.19
2022-12-04T17:06:27.258Z,103628.34
2022-12-04T17:09:31.979Z,103632.31
2022-12-04T17:12:36.730Z,103632.50
2022-12-04T17:15:42.741Z,103621.47
2022-12-04T17:18:47.570Z,103623.50
2022-12-04T17:21:52.247Z,103626.88
2022-12-04T17:24:57.488Z,103627.97
2022-12-04T17:28:02.386Z,103623.06
2022-12-04T17:31:15.790Z,103621.38
2022-12-04T17:34:20.475Z,103623.91
2022-12-04T17:37:25.496Z,103628.53
2022-12-04T17:40:30.220Z,103622.63
2022-12-04T17:43:36.467Z,103620.34
2022-12-04T17:46:42.735Z,103629.63
2022-12-04T17:49:47.622Z,103624.94
2022-12-04T17:52:52.300Z,103634.66
2022-12-04T17:55:56.990Z,103629.63
2022-12-04T17:59:01.852Z,103627.91
2022-12-04T18:02:08.005Z,103619.50
2022-12-04T18:05:13.320Z,103623.75
2022-12-04T18:08:18.135Z,103632.16
2022-12-04T18:11:24.816Z,103631.56
2022-12-04T18:14:31.781Z,103628.03
2022-12-04T18:17:39.691Z,103630.66
2022-12-04T18:20:44.435Z,103634.41
2022-12-04T18:23:49.092Z,103631.97
2022-12-04T18:26:53.913Z,103627.81
2022-12-04T18:30:00.748Z,103622.09
2022-12-04T18:33:06.818Z,103633.06
2022-12-04T18:36:16.474Z,103626.38
2022-12-04T18:39:23.911Z,103638.03
2022-12-04T18:42:28.748Z,103626.84
2022-12-04T18:45:33.479Z,103636.16
2022-12-04T18:48:40.461Z,103632.66
2022-12-04T18:51:49.933Z,103631.94
2022-12-04T18:54:55.177Z,103631.00
2022-12-04T18:57:59.821Z,103635.84
2022-12-04T19:01:07.891Z,103635.53
2022-12-04T19:04:17.390Z,103633.44
2022-12-04T19:07:22.086Z,103639.06
2022-12-04T19:10:27.382Z,103644.28
2022-12-04T19:13:32.272Z,103632.25
2022-12-04T19:16:36.977Z,103635.84
2022-12-04T19:19:43.261Z,103642.28
2022-12-04T19:22:48.345Z,103635.69
2022-12-04T19:26:00.027Z,103633.50
2022-12-04T19:29:05.756Z,103632.75
2022-12-04T19:32:13.362Z,103638.47
2022-12-04T19:35:19.512Z,103635.75
2022-12-04T19:38:24.381Z,103638.97
2022-12-04T19:41:31.171Z,103644.28
2022-12-04T19:44:51.215Z,103642.63
2022-12-04T19:47:56.342Z,103641.94
2022-12-04T19:51:07.429Z,103638.97
2022-12-04T19:54:15.325Z,103647.81
2022-12-04T19:57:19.997Z,103639.81
2022-12-04T20:00:24.805Z,103641.31
2022-12-04T20:03:29.588Z,103649.88
2022-12-04T20:06:40.654Z,103636.50
2022-12-04T20:09:52.098Z,103637.03
2022-12-04T20:12:57.555Z,103632.47
2022-12-04T20:16:03.465Z,103644.66
2022-12-04T20:19:13.873Z,103641.97
2022-12-04T20:22:19.998Z,103638.16
2022-12-04T20:25:24.937Z,103640.69
2022-12-04T20:28:29.773Z,103642.41
2022-12-04T20:31:36.399Z,103638.31
2022-12-04T20:34:43.804Z,103633.78
2022-12-04T20:37:50.189Z,103643.53
2022-12-04T20:40:54.847Z,103632.09
2022-12-04T20:44:01.911Z,103628.31
2022-12-04T20:47:06.714Z,103629.97
2022-12-04T20:50:13.313Z,103630.72
2022-12-04T20:53:19.533Z,103622.41
2022-12-04T20:56:25.964Z,103616.28
2022-12-04T20:59:30.737Z,103618.06
2022-12-04T21:02:35.565Z,103618.94
2022-12-04T21:05:40.262Z,103617.03
2022-12-04T21:08:56.670Z,103612.25
2022-12-04T21:12:01.550Z,103615.81
2022-12-04T21:15:25.041Z,103613.13
2022-12-04T21:18:29.846Z,103615.53
2022-12-04T21:21:35.887Z,103606.06
2022-12-04T21:24:42.312Z,103604.88
2022-12-04T21:27:47.126Z,103599.31
2022-12-04T21:30:51.807Z,103601.75
2022-12-04T21:33:56.710Z,103606.31
2022-12-04T21:37:01.476Z,103606.31
2022-12-04T21:40:10.808Z,103613.50
2022-12-04T21:43:15.622Z,103616.91
2022-12-04T21:46:20.351Z,103605.41
2022-12-04T21:49:25.073Z,103601.22
2022-12-04T21:52:29.952Z,103607.81
2022-12-04T21:55:36.240Z,103608.56
2022-12-04T21:58:40.913Z,103604.91
2022-12-04T22:01:45.822Z,103607.69
2022-12-04T22:04:50.789Z,103605.78
2022-12-04T22:07:55.485Z,103601.78
2022-12-04T22:11:01.560Z,103601.00
2022-12-04T22:14:06.433Z,103596.88
2022-12-04T22:17:10.840Z,103595.13
2022-12-04T22:20:15.594Z,103596.44
2022-12-04T22:23:20.310Z,103595.50
2022-12-04T22:26:27.255Z,103605.22
2022-12-04T22:29:49.765Z,103592.88
2022-12-04T22:32:55.845Z,103597.66
2022-12-04T22:36:04.231Z,103593.09
2022-12-04T22:39:10.397Z,103590.97
2022-12-04T22:42:17.213Z,103588.31
2022-12-04T22:45:22.058Z,103586.25
2022-12-04T22:48:29.478Z,103591.28
2022-12-04T22:51:34.248Z,103585.69
2022-12-04T22:54:38.885Z,103570.22
2022-12-04T22:57:45.217Z,103576.75
2022-12-04T23:00:50.184Z,103587.59
2022-12-04T23:03:55.517Z,103582.06
2022-12-04T23:07:00.167Z,103573.63
2022-12-04T23:10:05.820Z,103578.56
2022-12-04T23:13:12.083Z,103567.38
2022-12-04T23:16:20.122Z,103580.50
2022-12-04T23:19:25.543Z,103585.16
2022-12-04T23:22:30.253Z,103588.44
2022-12-04T23:25:40.406Z,103588.44
2022-12-04T23:28:46.836Z,103579.63
2022-12-04T23:31:51.693Z,103578.47
2022-12-04T23:34:56.459Z,103569.19
2022-12-04T23:38:01.084Z,103589.63
2022-12-04T23:41:08.949Z,103580.03
2022-12-04T23:44:15.078Z,103564.44
2022-12-04T23:47:19.914Z,103573.50
2022-12-04T23:50:25.012Z,103565.78
2022-12-04T23:53:30.017Z,103563.56
2022-12-04T23:56:34.693Z,103555.50
2022-12-04T23:59:40.923Z,103556.09
